Penllyn, Pennsylvania
Current Conditions -  °F | °C
As of 7:55 PM on Monday 22 Dec 2014 (Local Time) from KLOM Reporting Station
Overcast Overcast  
Wind Chill: 41°   Ceiling: 800
Heat Index: 41°   Visibility: 4mi
Dew Point: 37°   Wind: 0mph
Humidity: 87%   Direction: NA
Pressure: 30.18"   Gusts: NA
Location:  40.1575°N, 75.2796°W
Report Text: KLOM 230055Z AUTO 00000KT 4SM BKN008 BKN014 OVC042 05/03 A3018 RMK AO1
Loading
Personal Weather Stations






























Interactive Weather Map New forecast layout! Learn more

10-Day Weather Forecast

Advertisements
Track Severe Weather on mobile